Ruston, LA

10:31 AM CDT en Mayo 24, 2017 (GMT -0500)
Cooktown Community | | Change Station
Aviso en curso: Lake Wind Advisory

Alt 255 ft 32.56 °N, 92.66 °W | Updated 12 seconds ago

Clear
Despejado
69.3 ° F
Sensación térmica 69.3 ° F
N
0.0
Viento Variable Viento desde Norte
Gusts 0.0 mph

Hoy
Alta -- | Baja -- ° F
--% Posibilidad de precipitaciones
Ayer
Alta -- | Baja -- ° F
Precip. -- pul
Presión 29.77 pul
Visibilidad 10.0 Millas
Nubes Despejado
Punto de rocío 53 ° F
Humedad 56%
Precipitaciones 0.05 pul
Espesor de la nieve No disponible.
6:06 AM 8:08 PM
Creciente menguante, 2% visible
METAR KRSN 241515Z AUTO 28008KT 10SM CLR 18/11 A2977 RMK AO2 T01800107
Presión 29.77 pul
Visibilidad 10.0 Millas
Nubes Despejado
Punto de rocío 53 ° F
Humedad 56%
Precipitaciones 0.05 pul
Espesor de la nieve No disponible.
6:06 AM 8:08 PM
Creciente menguante, 2% visible
METAR KRSN 241515Z AUTO 28008KT 10SM CLR 18/11 A2977 RMK AO2 T01800107

Get Your Daily Forecast Email!

Thanks for signing up!

Be on the lookout for a verification email in your inbox.

You'll start receiving severe weather alerts in your inbox..

×

10-Day Weather Forecast

Almanac

Astronomía

May. 24, 2017 Salida Puesta
Hora real
Crepúsculo civil
Crepúsculo náutico
Crepúsculo astronómico
Luna
Horas de luz
Horas de luz
Tomorrow will be .
, % of the Moon is Illuminated

Extremos de hoy

Máximos del estado Bajos del estado

Community

WunderPhotos

Category 6

Welcome to Category 6. This is the collective home for Weather Underground's featured writeups by Dr. Jeff Masters (right), Bob Henson (left), Chris Burt, and other regular contributors.

Nearby

Calidad del aire

  Calidad del aire Índice AQ Contaminante
Not available.

Grosos de nieve

Estación Profundido Altura

Actividad de terremotos

Ciudad Distance Mag. Tiempo y dato
Magnitud mínima muestra es 2,5.

Temperaturas de aguas costeras

Lugar Temperatura

Stations

Estaciones meteorológicas cercanas

Ubicación de la estación Temp. Vientos helados Punto de rocío Humedad Viento Precip. Alt Actualizado Tipo
                   

Watches & Warnings

Lake Wind Advisory
Issued: 10:21 AM CDT May. 24, 2017 – National Weather Service

... Lake Wind Advisory remains in effect until 7 PM CDT this
evening...

* event... a tight pressure gradient will continue to develop
across the region today, resulting in northwest winds increasing
to near 15 to 20 mph with gusts as high as 30 to 35 mph at times.

* Timing... through 7 PM this evening.

* Impact... boaters should exercise caution on area lakes and
waterways due to rough chop conditions which can capsize small
craft. East and west bound high profile vehicles will be
affected by the winds and should be alert for sudden high wind
gusts.

Precautionary/preparedness actions...

A lake Wind Advisory indicates that winds will cause rough chop
on area lakes. Small boats will be especially prone to capsizing.



Palmer